Aeroporto :







RITROVATECI SU...

 
LOGIN :

Iscrizione | Disclaimer

   EN    FR    IT 

 









Sommario :    VFR   VFR Marginale   IFR   IFR Intensivo   IFR Molto Intensivo
Visibilità : 
Base nubi : 
>= 8 km
>= 3000ft
5 / 8 km
1000 / 3000 ft
1500m / 5 km
500 / 1000 ft
800 / 1500m
200 / 500 ft
< 800m
< 200 ft
Simboli :   Temporali  Nebbia  Neve Forte  Precipitazioni Forti  Vento > 20 kt






- Altitudine del aeroporto : 333 ft


KWVL - Waterville Robert Lafleur

ULTIMO METAR :
  • 061956Z AUTO 00000KT 10SM FEW080 OVC100 M02/M08 A2993 RMK AO2 SLP168 T10171078 FZRANO

METARs OBSOLETI :
  • 061856Z AUTO 00000KT 10SM OVC100 M02/M08 A2992 RMK AO2 SLP164 T10171083 FZRANO
  • 061756Z AUTO 30006KT 10SM BKN100 M02/M08 A2992 RMK AO2 SLP163 T10221083 11017 21056 58015 FZRANO

TAF N/A



MetMap, La meteo Aeronautica in un colpo d'occhio ! - Copyright ORBIFLY Dicembre 2007 - Disclaimer

ORBIFLY MET'MAP TEAM :

Programmazione e sviluppo : Alexandra Zaïnal
Concezione : Baudouin d'Aumeries
Aiuto per la programmazione : Marc-Olivier Méhu
Supporto tecnico e logistico : Manuel Goepfert
Aiuto per la traduzione : Arnaldo La Scala

Contatto : metmap@orbifly.com




FONTI E CREDITI :

   NOAA